KSTL/STL METAR and TAF weather

Enter ICAO airport designator
Station Type Date Time Source
KSTL METAR 2017/12/15 09:51 UTC NOAA

KSTL 150951Z 23009KT 10SM OVC034 M01/M06 A3010 RMK AO2 SLP203 T10061056


Station Type Date Time Source
KSTL Decoded METAR 2017/12/15 09:51 UTC NOAA

LAMBERT-ST LOUIS INTERNATIONAL AIRPORT , MO, United States (KSTL) 38-45N 90-22W 171M
Dec 15, 2017 - 04:51 AM EST / 2017.12.15 0951 UTC
Wind: from the SW (230 degrees) at 10 MPH (9 KT):0
Visibility: 10 mile(s):0
Sky conditions: overcast
Temperature: 30.9 F (-0.6 C)
Windchill: 23 F (-5 C):1
Dew Point: 21.9 F (-5.6 C)
Relative Humidity: 68%
Pressure (altimeter): 30.1 in. Hg (1019 hPa)
ob: KSTL 150951Z 23009KT 10SM OVC034 M01/M06 A3010 RMK AO2 SLP203 T10061056
cycle: 10

Station Type Date Time Source
KSTL TAF 2017/12/15 09:57 UTC NOAA

TAF
AMD KSTL 150854Z 1509/1612 27005KT P6SM OVC035
FM151700 27008G17KT P6SM SCT060
FM160000 22006KT P6SM FEW250


Example: see airport list